Time;durP1;ratioP1;P1;durP2;ratioP2;P2;SDS_P1;SDS_P2;PMS_P1;PMS_P2;Temp;Humidity;BMP_temperature;BMP_pressure;BME280_temperature;BME280_humidity;BME280_pressure;Samples;Min_cycle;Max_cycle;Signal;HPM_P1;HPM_P2
2021/08/23 00:06:48;;;;;;;26.38;20.77;;;;;;;17.04;100.00;101962.75;2613857;36;20535;-69
2021/08/23 00:09:19;;;;;;;27.40;20.98;;;;;;;17.06;100.00;101971.59;2616453;36;20641;-68
2021/08/23 00:11:47;;;;;;;26.80;21.27;;;;;;;17.09;100.00;101971.28;2617135;36;20030;-68
2021/08/23 00:14:16;;;;;;;28.67;20.83;;;;;;;17.07;100.00;101970.59;2616761;36;20514;-68
2021/08/23 00:16:44;;;;;;;29.58;21.38;;;;;;;17.08;100.00;101975.03;2616819;31;20042;-69
2021/08/23 00:19:12;;;;;;;30.08;21.95;;;;;;;17.08;100.00;101981.31;2616882;36;20133;-68
2021/08/23 00:21:44;;;;;;;31.02;21.55;;;;;;;17.09;100.00;101983.03;2616390;36;20022;-67
2021/08/23 00:24:24;;;;;;;33.35;23.40;;;;;;;17.11;100.00;101981.00;2615262;36;20044;-68
2021/08/23 00:26:53;;;;;;;28.77;21.38;;;;;;;17.13;100.00;101981.69;2615006;36;20023;-67
2021/08/23 00:29:21;;;;;;;;;;;;;;;17.16;100.00;101995.00;2614682;36;20122;-68
2021/08/23 00:31:50;;;;;;;31.42;22.80;;;;;;;17.17;100.00;101991.28;2616417;36;20068;-68
2021/08/23 00:34:19;;;;;;;30.73;22.23;;;;;;;17.22;100.00;101998.97;2615586;36;20065;-67
2021/08/23 00:36:48;;;;;;;36.35;26.58;;;;;;;17.24;100.00;101991.53;2615882;36;20157;-67
2021/08/23 00:39:18;;;;;;;37.97;28.43;;;;;;;17.21;100.00;102008.16;2615256;36;20145;-69
2021/08/23 00:41:47;;;;;;;45.83;30.15;;;;;;;17.17;100.00;102001.31;2615939;36;20149;-68
2021/08/23 00:44:15;;;;;;;48.40;34.73;;;;;;;17.10;100.00;102000.22;2615398;36;20561;-68
2021/08/23 00:46:43;;;;;;;50.37;35.80;;;;;;;17.07;100.00;102009.50;2615397;36;20038;-67
2021/08/23 00:49:13;;;;;;;56.10;35.43;;;;;;;17.05;100.00;102013.38;2616222;36;20532;-68
2021/08/23 00:51:41;;;;;;;58.78;35.63;;;;;;;16.99;100.00;102009.44;2615960;36;20026;-69
2021/08/23 00:54:10;;;;;;;64.60;37.03;;;;;;;16.86;100.00;102015.16;2616234;36;20137;-68
2021/08/23 00:56:41;;;;;;;60.77;36.67;;;;;;;16.91;100.00;102017.47;2615241;36;20390;-67
2021/08/23 00:59:11;;;;;;;61.28;34.50;;;;;;;16.91;100.00;102014.75;2614167;36;20054;-70
2021/08/23 01:01:49;;;;;;;61.92;36.88;;;;;;;16.90;100.00;102023.91;2615736;36;20073;-69
2021/08/23 01:04:24;;;;;;;59.70;34.95;;;;;;;16.80;100.00;102022.06;2616104;36;20153;-67
2021/08/23 01:06:53;;;;;;;68.80;37.03;;;;;;;16.78;100.00;102029.53;2614737;36;20125;-67
2021/08/23 01:09:23;;;;;;;58.05;34.70;;;;;;;16.76;100.00;102034.22;2615996;36;20534;-67
2021/08/23 01:11:58;;;;;;;62.00;35.83;;;;;;;16.79;100.00;102036.66;2616719;36;20129;-68
2021/08/23 01:14:26;;;;;;;65.97;36.72;;;;;;;16.75;100.00;102035.22;2614651;36;20712;-68
2021/08/23 01:16:54;;;;;;;66.53;37.37;;;;;;;16.72;100.00;102040.13;2616410;36;20034;-67
2021/08/23 01:19:25;;;;;;;62.83;34.45;;;;;;;16.69;100.00;102046.69;2615520;36;20173;-68
2021/08/23 01:21:55;;;;;;;65.55;37.80;;;;;;;16.67;100.00;102048.72;2615023;36;20125;-67
2021/08/23 01:24:25;;;;;;;68.97;37.28;;;;;;;16.66;100.00;102047.00;2615052;36;20062;-69
2021/08/23 01:26:56;;;;;;;65.22;36.05;;;;;;;16.63;100.00;102041.84;2614459;36;20084;-68
2021/08/23 01:29:34;;;;;;;62.03;35.67;;;;;;;16.64;100.00;102049.84;2615253;36;20586;-69
2021/08/23 01:32:15;;;;;;;68.40;36.72;;;;;;;16.71;100.00;102054.69;2615048;36;20022;-68
2021/08/23 01:34:45;;;;;;;73.80;36.55;;;;;;;16.66;100.00;102055.16;2615605;31;20040;-68
2021/08/23 01:37:14;;;;;;;55.28;32.92;;;;;;;16.68;100.00;102061.31;2615576;36;20030;-67
2021/08/23 01:39:42;;;;;;;;;;;;;;;16.68;100.00;102058.59;2616815;36;20117;-68
2021/08/23 01:42:11;;;;;;;59.10;33.43;;;;;;;16.71;100.00;102058.28;2615046;36;20004;-68
2021/08/23 01:44:39;;;;;;;58.63;31.80;;;;;;;16.64;100.00;102065.31;2609618;36;20382;-70
2021/08/23 01:47:08;;;;;;;54.85;29.83;;;;;;;16.62;100.00;102070.03;2609218;36;20296;-68
2021/08/23 01:49:39;;;;;;;46.03;28.47;;;;;;;16.71;100.00;102061.00;2610197;36;20149;-68
2021/08/23 01:52:08;;;;;;;42.92;25.70;;;;;;;16.61;100.00;102060.19;2615866;36;20322;-67
2021/08/23 01:54:36;;;;;;;46.08;28.48;;;;;;;16.52;100.00;102066.47;2615863;31;20759;-68
2021/08/23 01:57:05;;;;;;;47.00;26.00;;;;;;;16.52;100.00;102069.19;2615114;36;20049;-67
2021/08/23 01:59:33;;;;;;;41.65;24.52;;;;;;;16.49;100.00;102074.91;2615161;36;20026;-67
2021/08/23 02:02:01;;;;;;;38.63;23.40;;;;;;;16.51;100.00;102072.94;2615861;36;20112;-67
2021/08/23 02:04:29;;;;;;;34.88;22.83;;;;;;;16.38;100.00;102065.91;2615158;36;20138;-68
2021/08/23 02:07:00;;;;;;;40.05;24.70;;;;;;;16.38;100.00;102078.66;2614690;47;20118;-67
2021/08/23 02:09:29;;;;;;;33.03;22.45;;;;;;;16.41;100.00;102076.50;2615870;36;20027;-67
2021/08/23 02:11:57;;;;;;;38.05;23.17;;;;;;;16.37;100.00;102077.81;2615390;36;20541;-67
2021/08/23 02:14:25;;;;;;;35.35;23.67;;;;;;;16.44;100.00;102084.38;2614884;36;20129;-68
2021/08/23 02:16:54;;;;;;;36.38;22.88;;;;;;;16.38;100.00;102087.66;2614655;36;20145;-69
2021/08/23 02:19:23;;;;;;;35.33;23.17;;;;;;;16.38;100.00;102087.66;2616280;36;20415;-68
2021/08/23 02:21:53;;;;;;;39.13;24.75;;;;;;;16.36;100.00;102092.38;2615533;36;20061;-67
2021/08/23 02:24:28;;;;;;;37.58;25.60;;;;;;;16.37;100.00;102093.25;2613425;36;20516;-69
2021/08/23 02:26:56;;;;;;;36.42;25.20;;;;;;;16.28;100.00;102094.97;2615587;36;20030;-68
2021/08/23 02:29:24;;;;;;;37.33;25.83;;;;;;;16.26;100.00;102092.38;2615001;36;20177;-67
2021/08/23 02:31:53;;;;;;;33.47;23.75;;;;;;;16.27;100.00;102096.81;2615541;31;20535;-68
2021/08/23 02:34:21;;;;;;;33.03;24.27;;;;;;;16.27;100.00;102093.25;2614748;36;20122;-68
2021/08/23 02:36:49;;;;;;;35.60;25.88;;;;;;;16.23;100.00;102100.81;2616002;36;20121;-67
2021/08/23 02:39:17;;;;;;;32.67;22.42;;;;;;;16.30;100.00;102112.00;2614787;36;20023;-69
2021/08/23 02:41:53;;;;;;;32.65;23.55;;;;;;;16.31;100.00;102110.97;2615660;36;20045;-67
2021/08/23 02:44:21;;;;;;;29.73;21.45;;;;;;;16.28;100.00;102111.25;2615074;36;20023;-67
2021/08/23 02:46:49;;;;;;;31.57;23.03;;;;;;;16.23;100.00;102116.28;2615360;36;20185;-68
2021/08/23 02:49:18;;;;;;;27.93;21.00;;;;;;;16.18;100.00;102118.53;2614944;36;20031;-68
2021/08/23 02:51:48;;;;;;;30.92;21.92;;;;;;;16.16;100.00;102109.69;2615285;36;20042;-67
2021/08/23 02:54:16;;;;;;;31.15;23.08;;;;;;;16.16;100.00;102123.28;2615488;36;20153;-68
2021/08/23 02:56:47;;;;;;;38.03;24.60;;;;;;;16.17;100.00;102125.00;2616372;36;20129;-67
2021/08/23 02:59:15;;;;;;;30.70;23.30;;;;;;;16.19;100.00;102131.13;2617023;31;20549;-69
2021/08/23 03:01:44;;;;;;;28.77;22.43;;;;;;;16.15;100.00;102129.69;2614974;36;20165;-67
2021/08/23 03:04:12;;;;;;;29.58;21.45;;;;;;;16.16;100.00;102129.56;2615247;36;20659;-67
2021/08/23 03:06:40;;;;;;;27.70;20.67;;;;;;;16.11;100.00;102135.41;2616605;31;20622;-66
2021/08/23 03:09:09;;;;;;;29.30;21.30;;;;;;;16.11;100.00;102145.44;2616139;36;20073;-68
2021/08/23 03:11:37;;;;;;;27.42;21.00;;;;;;;16.14;100.00;102144.31;2613593;36;20149;-67
2021/08/23 03:14:08;;;;;;;31.42;20.33;;;;;;;16.09;100.00;102145.56;2615773;36;20042;-68
2021/08/23 03:16:36;;;;;;;28.08;21.35;;;;;;;16.05;100.00;102146.00;2615742;36;20130;-66
2021/08/23 03:19:04;;;;;;;26.40;20.20;;;;;;;16.03;100.00;102153.41;2615966;36;20106;-67
2021/08/23 03:21:32;;;;;;;30.43;20.90;;;;;;;16.06;100.00;102151.28;2615978;36;20038;-67
2021/08/23 03:24:01;;;;;;;26.25;19.35;;;;;;;16.07;100.00;102158.41;2616699;31;20479;-67
2021/08/23 03:26:29;;;;;;;32.92;21.40;;;;;;;16.08;100.00;102152.00;2616869;31;20519;-68
2021/08/23 03:28:57;;;;;;;30.67;21.30;;;;;;;16.07;100.00;102155.69;2616715;31;20521;-67
2021/08/23 03:31:28;;;;;;;27.88;20.73;;;;;;;16.11;100.00;102153.59;2615425;36;20034;-68
2021/08/23 03:33:56;;;;;;;28.05;20.38;;;;;;;16.11;100.00;102162.56;2616292;36;20114;-68
2021/08/23 03:36:24;;;;;;;31.10;22.30;;;;;;;16.16;100.00;102161.31;2615410;36;20089;-66
2021/08/23 03:38:52;;;;;;;33.30;20.87;;;;;;;16.19;100.00;102169.16;2616715;31;20483;-67
2021/08/23 03:41:21;;;;;;;29.05;19.92;;;;;;;16.20;100.00;102176.31;2615191;36;20394;-66
2021/08/23 03:43:49;;;;;;;28.20;20.13;;;;;;;16.19;100.00;102166.44;2615679;36;20154;-66
2021/08/23 03:46:17;;;;;;;27.63;19.60;;;;;;;16.25;100.00;102165.88;2616929;36;20149;-67
2021/08/23 03:48:48;;;;;;;25.90;18.50;;;;;;;16.18;100.00;102173.75;2615089;36;20133;-68
2021/08/23 03:51:16;;;;;;;25.15;17.67;;;;;;;16.16;100.00;102169.44;2615608;36;20038;-67
2021/08/23 03:53:44;;;;;;;27.77;16.93;;;;;;;16.18;100.00;102170.16;2616377;36;20030;-67
2021/08/23 03:56:12;;;;;;;24.25;16.20;;;;;;;16.16;100.00;102164.88;2616794;36;20202;-68
2021/08/23 03:58:41;;;;;;;23.65;16.70;;;;;;;16.15;100.00;102171.31;2615438;31;20045;-67
2021/08/23 04:01:09;;;;;;;24.73;15.18;;;;;;;16.15;100.00;102173.16;2616597;36;20046;-67
2021/08/23 04:03:37;;;;;;;25.93;16.00;;;;;;;16.11;100.00;102178.03;2614952;36;21237;-67
2021/08/23 04:06:12;;;;;;;21.85;14.45;;;;;;;16.01;100.00;102183.44;2616356;36;20438;-68
2021/08/23 04:08:40;;;;;;;23.63;13.45;;;;;;;16.04;100.00;102187.72;2616007;36;20166;-67
2021/08/23 04:11:08;;;;;;;18.70;12.97;;;;;;;16.03;100.00;102186.00;2615528;36;20034;-69
2021/08/23 04:13:36;;;;;;;25.58;13.20;;;;;;;16.04;100.00;102183.16;2615210;31;21098;-67
2021/08/23 04:16:05;;;;;;;20.55;13.98;;;;;;;16.05;100.00;102184.88;2615311;36;20157;-67
2021/08/23 04:18:33;;;;;;;20.02;12.95;;;;;;;16.05;100.00;102189.44;2616607;31;20504;-67
2021/08/23 04:21:01;;;;;;;18.15;12.52;;;;;;;16.07;100.00;102193.72;2615850;36;20582;-66
2021/08/23 04:26:28;;;;;;;16.70;11.07;;;;;;;15.97;100.00;102198.28;2614671;36;20048;-67
2021/08/23 04:28:56;;;;;;;23.20;11.38;;;;;;;15.96;100.00;102207.44;2615429;36;20038;-67
2021/08/23 04:31:26;;;;;;;19.33;10.23;;;;;;;16.03;100.00;102202.28;2616414;36;20150;-68
2021/08/23 04:33:54;;;;;;;18.00;10.48;;;;;;;16.03;100.00;102207.72;2616327;36;20029;-67
2021/08/23 04:36:22;;;;;;;17.80;10.15;;;;;;;16.02;100.00;102211.44;2616628;31;20598;-67
2021/08/23 04:38:51;;;;;;;20.75;10.80;;;;;;;15.95;100.00;102216.56;2615788;36;20157;-67
2021/08/23 04:41:19;;;;;;;15.48;9.60;;;;;;;15.96;100.00;102218.31;2615432;36;20030;-68
2021/08/23 04:43:50;;;;;;;15.23;10.07;;;;;;;15.99;100.00;102222.56;2616396;36;20126;-68
2021/08/23 04:46:18;;;;;;;13.80;9.75;;;;;;;15.98;100.00;102221.72;2616922;31;20073;-67
2021/08/23 04:48:47;;;;;;;18.60;10.07;;;;;;;15.97;100.00;102220.00;2615102;36;20033;-68
2021/08/23 04:51:15;;;;;;;16.75;10.00;;;;;;;15.95;100.00;102222.00;2616094;36;20038;-67
2021/08/23 04:53:43;;;;;;;15.77;8.77;;;;;;;15.93;100.00;102229.44;2616086;31;20077;-68
2021/08/23 04:56:12;;;;;;;14.88;9.68;;;;;;;15.91;100.00;102234.97;2616108;36;20178;-68
2021/08/23 04:58:40;;;;;;;;;;;;;;;15.90;100.00;102240.53;2615906;31;20434;-68
2021/08/23 05:01:12;;;;;;;18.60;10.05;;;;;;;15.83;100.00;102236.69;2614974;36;20471;-67
2021/08/23 05:03:40;;;;;;;14.20;9.77;;;;;;;15.83;100.00;102242.13;2615620;36;20125;-67
2021/08/23 05:06:08;;;;;;;17.65;10.35;;;;;;;15.94;100.00;102242.88;2616480;36;20031;-67
2021/08/23 05:08:37;;;;;;;20.10;9.23;;;;;;;15.92;100.00;102238.56;2614287;36;20031;-68
2021/08/23 05:11:05;;;;;;;18.40;10.20;;;;;;;15.88;100.00;102246.13;2614566;36;20046;-66
2021/08/23 05:13:33;;;;;;;18.20;9.93;;;;;;;15.91;100.00;102259.41;2614674;36;20527;-67
2021/08/23 05:16:01;;;;;;;17.05;10.73;;;;;;;15.94;100.00;102258.28;2615465;36;20532;-67
2021/08/23 05:18:32;;;;;;;15.47;10.27;;;;;;;15.90;100.00;102260.44;2615100;36;20536;-67
2021/08/23 05:21:03;;;;;;;16.77;10.90;;;;;;;15.97;100.00;102266.16;2615986;36;20129;-68
2021/08/23 05:23:31;;;;;;;16.23;9.90;;;;;;;16.04;100.00;102270.03;2615947;36;20467;-66
2021/08/23 05:25:59;;;;;;;13.73;9.10;;;;;;;16.02;100.00;102277.50;2616411;36;20106;-67
2021/08/23 05:28:30;;;;;;;19.20;9.80;;;;;;;16.02;100.00;102276.59;2614533;31;20053;-67
2021/08/23 05:30:58;;;;;;;15.85;9.63;;;;;;;16.12;100.00;102277.50;2615880;31;20812;-68
2021/08/23 05:33:27;;;;;;;15.43;8.63;;;;;;;16.14;100.00;102275.53;2615774;36;20113;-67
2021/08/23 05:35:58;;;;;;;16.07;9.23;;;;;;;16.21;100.00;102278.53;2616051;36;20587;-67
2021/08/23 05:38:26;;;;;;;18.10;9.20;;;;;;;16.18;100.00;102276.97;2615687;36;20110;-69
2021/08/23 05:40:54;;;;;;;14.63;8.93;;;;;;;16.20;100.00;102282.25;2614560;36;20058;-67
2021/08/23 05:43:22;;;;;;;15.75;10.05;;;;;;;16.21;100.00;102281.25;2614687;36;20042;-69
2021/08/23 05:45:51;;;;;;;15.00;9.95;;;;;;;16.10;100.00;102293.94;2616879;36;20162;-67
2021/08/23 05:48:19;;;;;;;15.38;8.18;;;;;;;16.14;100.00;102299.13;2614637;36;20046;-66
2021/08/23 05:50:47;;;;;;;11.70;7.43;;;;;;;16.21;100.00;102295.72;2614742;36;20587;-67
2021/08/23 05:53:18;;;;;;;17.20;9.43;;;;;;;16.18;100.00;102304.13;2614696;36;20166;-68
2021/08/23 05:55:46;;;;;;;18.92;8.65;;;;;;;16.26;100.00;102303.44;2614359;31;20134;-67
2021/08/23 05:58:14;;;;;;;15.20;8.18;;;;;;;16.27;100.00;102303.31;2607758;36;20150;-67
2021/08/23 06:00:42;;;;;;;13.15;7.55;;;;;;;16.26;100.00;102311.59;2612835;36;20097;-67
2021/08/23 06:03:10;;;;;;;13.55;8.15;;;;;;;16.33;100.00;102303.72;2614930;36;20141;-67
2021/08/23 06:05:39;;;;;;;14.85;8.07;;;;;;;16.34;100.00;102303.63;2614811;36;20026;-67
2021/08/23 06:08:08;;;;;;;13.98;7.38;;;;;;;16.34;100.00;102311.78;2614118;31;20039;-66
2021/08/23 06:10:39;;;;;;;10.95;6.97;;;;;;;16.38;100.00;102306.91;2613631;31;20034;-67
2021/08/23 06:13:07;;;;;;;10.32;6.68;;;;;;;16.54;100.00;102309.94;2613801;36;20118;-67
2021/08/23 06:15:36;;;;;;;9.07;6.35;;;;;;;16.50;100.00;102316.66;2615174;36;20059;-67
2021/08/23 06:18:04;;;;;;;12.48;6.70;;;;;;;16.52;100.00;102319.22;2614806;36;20073;-67
2021/08/23 06:20:32;;;;;;;14.32;6.32;;;;;;;16.44;100.00;102320.81;2616473;36;20046;-67
2021/08/23 06:23:00;;;;;;;11.40;6.43;;;;;;;16.34;100.00;102321.75;2615918;36;20081;-67
2021/08/23 06:25:28;;;;;;;12.68;6.15;;;;;;;16.43;100.00;102323.63;2616317;36;20189;-67
2021/08/23 06:27:59;;;;;;;14.77;6.30;;;;;;;16.56;100.00;102326.09;2614857;36;20571;-68
2021/08/23 06:30:27;;;;;;;10.90;5.85;;;;;;;16.56;100.00;102312.50;2614433;36;20049;-67
2021/08/23 06:32:56;;;;;;;12.02;5.18;;;;;;;16.71;100.00;102315.69;2616716;31;20528;-67
2021/08/23 06:35:24;;;;;;;8.98;5.07;;;;;;;16.81;100.00;102314.72;2616866;36;20034;-68
2021/08/23 06:37:52;;;;;;;8.33;4.57;;;;;;;16.63;100.00;102308.25;2616093;36;20104;-66
2021/08/23 06:40:20;;;;;;;8.07;4.97;;;;;;;16.68;100.00;102318.69;2616297;36;20523;-68
2021/08/23 06:45:30;;;;;;;9.60;4.57;;;;;;;16.76;100.00;102319.72;2616223;36;20122;-67
2021/08/23 06:47:58;;;;;;;8.63;4.20;;;;;;;16.86;100.00;102319.72;2616684;36;20039;-67
2021/08/23 06:50:26;;;;;;;9.02;4.70;;;;;;;16.90;100.00;102323.03;2614943;36;20172;-67
2021/08/23 06:52:56;;;;;;;14.07;4.53;;;;;;;16.93;100.00;102317.31;2613007;36;20054;-67
2021/08/23 06:55:24;;;;;;;;;;;;;;;16.99;100.00;102324.94;2617224;36;20523;-67
2021/08/23 06:57:52;;;;;;;9.95;4.10;;;;;;;17.11;100.00;102323.78;2614952;36;20030;-67
2021/08/23 07:00:20;;;;;;;8.23;3.92;;;;;;;17.10;100.00;102323.91;2616254;36;20133;-67
2021/08/23 07:02:51;;;;;;;9.47;4.13;;;;;;;17.17;100.00;102317.75;2616608;36;20069;-66
2021/08/23 07:05:19;;;;;;;11.77;4.07;;;;;;;17.22;100.00;102327.34;2616038;36;20039;-66
2021/08/23 07:07:47;;;;;;;8.07;4.03;;;;;;;17.31;100.00;102329.19;2615245;36;20030;-66
2021/08/23 07:10:16;;;;;;;9.37;4.00;;;;;;;17.38;100.00;102329.50;2614527;36;20034;-66
2021/08/23 07:12:45;;;;;;;9.57;4.00;;;;;;;17.41;100.00;102324.59;2615728;36;20084;-66
2021/08/23 07:15:14;;;;;;;9.13;4.18;;;;;;;17.37;100.00;102328.59;2615157;36;20049;-65
2021/08/23 07:17:42;;;;;;;9.02;4.25;;;;;;;17.42;100.00;102326.31;2615319;36;20598;-65
2021/08/23 07:20:14;;;;;;;7.50;3.73;;;;;;;17.35;100.00;102317.03;2616533;31;20977;-65
2021/08/23 07:22:42;;;;;;;9.18;4.20;;;;;;;17.42;100.00;102323.59;2615687;36;20023;-66
2021/08/23 07:25:11;;;;;;;12.23;3.90;;;;;;;17.48;100.00;102331.19;2617005;36;20118;-66
2021/08/23 07:27:39;;;;;;;6.15;3.70;;;;;;;17.48;100.00;102336.63;2616473;36;20117;-66
2021/08/23 07:30:10;;;;;;;11.80;3.60;;;;;;;17.49;100.00;102338.34;2617041;36;20567;-66
2021/08/23 07:32:40;;;;;;;6.72;3.13;;;;;;;17.61;100.00;102335.47;2617266;36;20050;-66
2021/08/23 07:35:09;;;;;;;5.78;3.50;;;;;;;17.73;100.00;102330.72;2616823;36;20165;-65
2021/08/23 07:37:45;;;;;;;12.60;3.75;;;;;;;17.74;100.00;102340.59;2617368;36;20072;-66
2021/08/23 07:40:15;;;;;;;8.30;3.20;;;;;;;17.73;100.00;102333.44;2616228;36;20118;-66
2021/08/23 07:42:43;;;;;;;5.00;3.13;;;;;;;17.65;100.00;102339.59;2616650;36;20053;-66
2021/08/23 07:45:14;;;;;;;8.48;3.53;;;;;;;17.59;100.00;102340.19;2615645;36;20026;-65
2021/08/23 07:47:44;;;;;;;8.35;3.25;;;;;;;17.83;100.00;102337.84;2614767;36;20022;-66
2021/08/23 07:50:14;;;;;;;8.25;3.17;;;;;;;18.19;100.00;102346.19;2614717;36;20052;-66
2021/08/23 07:52:45;;;;;;;6.85;2.80;;;;;;;18.44;100.00;102346.50;2616296;31;20126;-66
2021/08/23 07:55:14;;;;;;;6.15;3.20;;;;;;;18.59;100.00;102332.38;2617270;36;20076;-66
2021/08/23 07:57:44;;;;;;;8.65;2.88;;;;;;;18.46;100.00;102346.38;2613140;31;20034;-65
2021/08/23 08:00:14;;;;;;;5.53;3.00;;;;;;;18.36;100.00;102344.56;2617049;36;20030;-65
2021/08/23 08:02:42;;;;;;;6.20;2.65;;;;;;;18.40;100.00;102345.09;2617644;36;20068;-67
2021/08/23 08:05:12;;;;;;;6.60;2.78;;;;;;;18.55;100.00;102349.03;2617208;36;20060;-65
2021/08/23 08:07:40;;;;;;;8.35;2.45;;;;;;;18.53;100.00;102347.47;2617673;31;20498;-65
2021/08/23 08:10:13;;;;;;;4.35;2.60;;;;;;;18.55;100.00;102349.03;2616171;31;20038;-66
2021/08/23 08:12:42;;;;;;;10.07;2.90;;;;;;;18.62;100.00;102346.53;2616170;36;20030;-67
2021/08/23 08:15:12;;;;;;;6.78;3.00;;;;;;;18.84;100.00;102345.25;2616887;36;20066;-65
2021/08/23 08:17:40;;;;;;;6.55;3.15;;;;;;;18.84;100.00;102350.72;2616580;31;20147;-66
2021/08/23 08:20:10;;;;;;;5.38;2.88;;;;;;;18.66;100.00;102356.16;2615985;36;20118;-65
2021/08/23 08:22:39;;;;;;;6.13;2.58;;;;;;;18.83;100.00;102354.47;2617132;36;20027;-66
2021/08/23 08:25:09;;;;;;;5.00;2.85;;;;;;;19.00;100.00;102354.66;2616249;36;20022;-65
2021/08/23 08:27:40;;;;;;;9.20;3.00;;;;;;;19.07;100.00;102359.34;2617175;36;20033;-65
2021/08/23 08:30:10;;;;;;;9.57;2.65;;;;;;;19.13;100.00;102359.75;2615119;36;20080;-67
2021/08/23 08:32:39;;;;;;;6.85;2.90;;;;;;;19.14;100.00;102351.41;2617462;36;20057;-66
2021/08/23 08:35:07;;;;;;;5.10;3.08;;;;;;;19.35;100.00;102361.97;2617884;31;20510;-66
2021/08/23 08:37:36;;;;;;;4.88;2.50;;;;;;;19.27;100.00;102367.34;2617485;36;20038;-66
2021/08/23 08:40:04;;;;;;;4.90;2.92;;;;;;;19.10;100.00;102366.38;2616547;31;20076;-66
2021/08/23 08:42:32;;;;;;;4.90;2.63;;;;;;;19.21;100.00;102368.88;2616483;36;20117;-67
2021/08/23 08:45:03;;;;;;;7.20;2.67;;;;;;;19.33;100.00;102371.34;2617026;36;20080;-66
2021/08/23 08:47:32;;;;;;;5.68;2.50;;;;;;;19.34;100.00;102375.78;2617055;36;20349;-66
2021/08/23 08:50:02;;;;;;;6.97;2.70;;;;;;;19.49;100.00;102368.75;2615164;36;20038;-65
2021/08/23 08:52:30;;;;;;;6.63;2.40;;;;;;;19.62;100.00;102371.06;2615881;36;20548;-66
2021/08/23 08:55:00;;;;;;;6.25;2.70;;;;;;;19.58;100.00;102380.59;2616385;36;20061;-65
2021/08/23 08:57:28;;;;;;;5.55;2.40;;;;;;;19.28;100.00;102373.69;2615263;36;20027;-65
2021/08/23 08:59:56;;;;;;;5.70;2.30;;;;;;;19.34;100.00;102378.53;2615985;36;20126;-66
2021/08/23 09:02:27;;;;;;;4.40;2.53;;;;;;;19.54;100.00;102377.34;2616811;31;20740;-65
2021/08/23 09:04:55;;;;;;;3.63;2.50;;;;;;;19.39;100.00;102377.03;2616769;36;20329;-64
2021/08/23 09:07:23;;;;;;;6.07;2.33;;;;;;;19.61;100.00;102375.69;2615826;36;20073;-65
2021/08/23 09:09:51;;;;;;;6.18;2.42;;;;;;;19.60;100.00;102373.97;2615853;31;20122;-65
2021/08/23 09:12:20;;;;;;;7.37;2.23;;;;;;;19.94;100.00;102370.47;2615779;36;20110;-66
2021/08/23 09:14:52;;;;;;;3.67;2.42;;;;;;;20.12;100.00;102375.00;2615673;36;20114;-67
2021/08/23 09:17:27;;;;;;;4.93;2.38;;;;;;;20.39;100.00;102384.03;2612774;36;20121;-65
2021/08/23 09:20:02;;;;;;;4.25;2.50;;;;;;;20.17;100.00;102375.41;2615977;31;20589;-65
2021/08/23 09:22:30;;;;;;;5.15;2.50;;;;;;;20.27;100.00;102375.25;2616114;36;20184;-66
2021/08/23 09:25:10;;;;;;;4.82;2.20;;;;;;;20.48;100.00;102372.13;2615963;36;20610;-66
2021/08/23 09:27:39;;;;;;;3.78;2.42;;;;;;;20.57;100.00;102375.75;2616297;36;20067;-65
2021/08/23 09:30:11;;;;;;;5.13;1.90;;;;;;;20.65;100.00;102382.06;2614618;36;20034;-65
2021/08/23 09:32:52;;;;;;;5.20;1.85;;;;;;;20.55;100.00;102384.09;2615474;36;20561;-65
2021/08/23 09:35:28;;;;;;;6.50;2.50;;;;;;;20.70;100.00;102375.28;2616286;36;20053;-66
2021/08/23 09:37:57;;;;;;;4.10;2.20;;;;;;;20.74;100.00;102385.72;2616076;31;20530;-65
2021/08/23 09:40:28;;;;;;;6.20;2.65;;;;;;;20.74;100.00;102390.34;2613748;36;21305;-64
2021/08/23 09:43:08;;;;;;;9.15;2.72;;;;;;;20.82;100.00;102390.41;2615772;36;20411;-65
2021/08/23 09:45:36;;;;;;;3.63;2.00;;;;;;;20.89;100.00;102390.56;2614332;36;20060;-66
2021/08/23 09:48:08;;;;;;;5.97;2.38;;;;;;;20.94;100.00;102397.25;2613586;36;20085;-65
2021/08/23 09:50:42;;;;;;;4.97;2.40;;;;;;;21.18;100.00;102395.59;2617151;31;20558;-65
2021/08/23 09:53:11;;;;;;;6.18;1.98;;;;;;;21.26;100.00;102395.59;2616411;36;20038;-65
2021/08/23 09:55:43;;;;;;;6.72;2.33;;;;;;;21.39;100.00;102389.59;2616041;36;20132;-65
2021/08/23 09:58:13;;;;;;;6.57;2.13;;;;;;;21.83;100.00;102396.66;2616542;31;20454;-64
2021/08/23 10:00:42;;;;;;;4.90;2.10;;;;;;;21.64;100.00;102389.63;2616153;36;20547;-65
2021/08/23 10:03:18;;;;;;;6.65;2.22;;;;;;;21.37;100.00;102391.66;2616577;36;20160;-65
2021/08/23 10:05:50;;;;;;;5.60;2.00;;;;;;;21.08;100.00;102383.94;2616970;36;20599;-64
2021/08/23 10:08:20;;;;;;;3.60;1.80;;;;;;;21.23;100.00;102385.00;2616531;31;20026;-65
2021/08/23 10:10:49;;;;;;;4.03;2.00;;;;;;;21.55;100.00;102391.53;2615664;36;20527;-64
2021/08/23 10:13:18;;;;;;;6.10;2.00;;;;;;;21.51;100.00;102392.91;2615572;36;20105;-65
2021/08/23 10:15:46;;;;;;;3.17;1.90;;;;;;;21.82;100.00;102392.19;2615522;36;20126;-65
2021/08/23 10:18:17;;;;;;;5.38;1.90;;;;;;;21.67;100.00;102395.66;2614686;36;20172;-65
2021/08/23 10:20:46;;;;;;;5.18;2.00;;;;;;;21.30;100.00;102394.25;2614769;36;20034;-65
2021/08/23 10:23:18;;;;;;;3.53;2.03;;;;;;;21.50;100.00;102388.44;2614992;31;20476;-65
2021/08/23 10:25:47;;;;;;;8.95;1.95;;;;;;;21.53;100.00;102394.44;2615790;36;20122;-64
2021/08/23 10:28:16;;;;;;;5.50;2.17;;;;;;;21.78;100.00;102401.81;2614159;36;20646;-65
2021/08/23 10:30:44;;;;;;;5.32;2.03;;;;;;;21.63;100.00;102394.28;2616658;36;20038;-65
2021/08/23 10:33:18;;;;;;;4.40;2.17;;;;;;;21.81;100.00;102402.31;2613679;36;20173;-65
2021/08/23 10:35:49;;;;;;;4.63;1.90;;;;;;;21.87;100.00;102396.13;2615317;31;20038;-65
2021/08/23 10:38:19;;;;;;;6.03;2.10;;;;;;;21.83;100.00;102393.91;2616014;36;20035;-65
2021/08/23 10:40:48;;;;;;;6.70;2.00;;;;;;;22.00;100.00;102403.81;2616050;36;20030;-65
2021/08/23 10:43:18;;;;;;;4.47;1.73;;;;;;;22.20;100.00;102406.16;2615788;36;20056;-65
2021/08/23 10:45:47;;;;;;;5.07;2.20;;;;;;;22.29;100.00;102399.63;2617143;31;20525;-65
2021/08/23 10:48:20;;;;;;;3.83;1.83;;;;;;;22.22;100.00;102398.63;2616132;36;20043;-66
2021/08/23 10:50:59;;;;;;;4.65;1.90;;;;;;;22.39;100.00;102399.44;2617342;31;20491;-65
2021/08/23 10:53:36;;;;;;;5.75;2.03;;;;;;;22.64;100.00;102397.44;2615641;36;20559;-64
2021/08/23 10:56:18;;;;;;;4.57;1.92;;;;;;;22.61;100.00;102395.06;2614210;36;21158;-66
2021/08/23 10:58:47;;;;;;;7.22;2.05;;;;;;;22.86;100.00;102397.69;2616056;36;20030;-67
2021/08/23 11:01:20;;;;;;;;;;;;;;;23.32;100.00;102397.78;2615402;36;20026;-66
2021/08/23 11:04:01;;;;;;;3.72;1.90;;;;;;;23.33;100.00;102396.72;2616836;36;19959;-66
2021/08/23 11:06:30;;;;;;;4.82;2.10;;;;;;;22.44;100.00;102408.03;2616127;36;20073;-66
2021/08/23 11:09:09;;;;;;;2.53;1.77;;;;;;;22.17;100.00;102396.41;2615129;36;20550;-67
2021/08/23 11:11:38;;;;;;;3.72;1.75;;;;;;;22.68;100.00;102396.06;2614536;36;20057;-67
2021/08/23 11:14:16;;;;;;;;;;;;;;;22.81;100.00;102392.75;2614793;36;21543;-66
2021/08/23 11:16:45;;;;;;;;;;;;;;;22.76;100.00;102403.41;2616390;36;19954;-65
2021/08/23 11:19:15;;;;;;;7.25;2.10;;;;;;;21.88;100.00;102397.00;2616565;36;19977;-66
2021/08/23 11:21:47;;;;;;;5.03;3.45;;;;;;;22.20;100.00;102393.31;2616252;36;20027;-66
2021/08/23 11:24:19;;;;;;;7.90;2.10;;;;;;;22.49;100.00;102391.03;2615498;36;20037;-66
2021/08/23 11:27:00;;;;;;;4.22;2.35;;;;;;;22.63;100.00;102389.41;2613779;36;20698;-67
2021/08/23 11:29:28;;;;;;;6.18;2.10;;;;;;;23.15;100.00;102393.44;2615523;36;20042;-67
2021/08/23 11:31:58;;;;;;;3.58;2.10;;;;;;;22.25;100.00;102400.19;2613973;36;20126;-66
2021/08/23 11:34:31;;;;;;;3.38;1.90;;;;;;;21.86;100.00;102396.28;2614568;36;20038;-67